Terminal Aerodrome Forecast
Issued by NWS

Home | Current Version | Previous Version | Text Only | Print | Product List | Glossary On
Versions: 1 2 3 4 5 6 7 8 9 10 11 12 13 14 15 16 17 18 19 20 21 22 23 24 25 26 27 28 29
000
FTPQ31 PGUM 251720
TAFGUM
TAF

TAF
PKWA 251720Z 2518/2618 08012KT 6SM -RA VCTS SCT014CB BKN040 OVC100
      TEMPO 2519/2523 08012G22KT 3SM +SHRA BKN012 OVC025
     FM252300 09011KT P6SM VCSH SCT016 SCT040 BKN120=

USA.gov is the U.S. government's official web portal to all federal, state and local government web resources and services.